sensor_id;sensor_type;location;lat;lon;timestamp;temperature;humidity
20498;DHT22;10407;53.238;10.448;2023-03-14T00:00:13;11.30;99.90
20498;DHT22;10407;53.238;10.448;2023-03-14T00:02:41;11.40;99.90
20498;DHT22;10407;53.238;10.448;2023-03-14T00:05:09;11.40;99.90
20498;DHT22;10407;53.238;10.448;2023-03-14T00:07:38;11.40;99.90
20498;DHT22;10407;53.238;10.448;2023-03-14T00:10:12;11.40;99.90
20498;DHT22;10407;53.238;10.448;2023-03-14T00:12:41;11.50;99.90
20498;DHT22;10407;53.238;10.448;2023-03-14T00:15:09;11.50;99.90
20498;DHT22;10407;53.238;10.448;2023-03-14T00:17:37;11.50;99.90
20498;DHT22;10407;53.238;10.448;2023-03-14T00:20:06;11.50;99.90
20498;DHT22;10407;53.238;10.448;2023-03-14T00:22:38;11.50;99.90
20498;DHT22;10407;53.238;10.448;2023-03-14T00:25:08;11.50;99.90
20498;DHT22;10407;53.238;10.448;2023-03-14T00:27:36;11.50;99.90
20498;DHT22;10407;53.238;10.448;2023-03-14T00:30:05;11.40;99.90
20498;DHT22;10407;53.238;10.448;2023-03-14T00:32:34;11.40;99.90
20498;DHT22;10407;53.238;10.448;2023-03-14T00:35:02;11.50;99.90
20498;DHT22;10407;53.238;10.448;2023-03-14T00:37:30;11.50;99.90
20498;DHT22;10407;53.238;10.448;2023-03-14T00:39:58;11.50;99.90
20498;DHT22;10407;53.238;10.448;2023-03-14T00:42:25;11.50;99.90
20498;DHT22;10407;53.238;10.448;2023-03-14T00:44:53;11.50;99.90
20498;DHT22;10407;53.238;10.448;2023-03-14T00:47:21;11.50;99.90
20498;DHT22;10407;53.238;10.448;2023-03-14T00:49:49;11.50;99.90
20498;DHT22;10407;53.238;10.448;2023-03-14T00:52:16;11.40;99.90
20498;DHT22;10407;53.238;10.448;2023-03-14T00:54:44;11.40;99.90
20498;DHT22;10407;53.238;10.448;2023-03-14T00:57:11;11.40;99.90
20498;DHT22;10407;53.238;10.448;2023-03-14T00:59:39;11.40;99.90
20498;DHT22;10407;53.238;10.448;2023-03-14T01:02:06;11.30;99.90
20498;DHT22;10407;53.238;10.448;2023-03-14T01:04:34;11.30;99.90
20498;DHT22;10407;53.238;10.448;2023-03-14T01:07:01;11.30;99.90
20498;DHT22;10407;53.238;10.448;2023-03-14T01:09:29;11.30;99.90
20498;DHT22;10407;53.238;10.448;2023-03-14T01:11:56;11.30;99.90
20498;DHT22;10407;53.238;10.448;2023-03-14T01:14:24;11.30;99.90
20498;DHT22;10407;53.238;10.448;2023-03-14T01:16:51;11.30;99.90
20498;DHT22;10407;53.238;10.448;2023-03-14T01:19:19;11.30;99.90
20498;DHT22;10407;53.238;10.448;2023-03-14T01:21:46;11.30;99.90
20498;DHT22;10407;53.238;10.448;2023-03-14T01:24:20;11.40;99.90
20498;DHT22;10407;53.238;10.448;2023-03-14T01:26:48;11.40;99.90
20498;DHT22;10407;53.238;10.448;2023-03-14T01:29:16;11.30;99.90
20498;DHT22;10407;53.238;10.448;2023-03-14T01:31:43;11.30;99.90
20498;DHT22;10407;53.238;10.448;2023-03-14T01:34:11;11.20;99.90
20498;DHT22;10407;53.238;10.448;2023-03-14T01:36:38;11.30;99.90
20498;DHT22;10407;53.238;10.448;2023-03-14T01:39:06;11.20;99.90
20498;DHT22;10407;53.238;10.448;2023-03-14T01:41:34;11.30;99.90
20498;DHT22;10407;53.238;10.448;2023-03-14T01:44:02;11.30;99.90
20498;DHT22;10407;53.238;10.448;2023-03-14T01:46:37;11.20;99.90
20498;DHT22;10407;53.238;10.448;2023-03-14T01:49:22;11.20;99.90
20498;DHT22;10407;53.238;10.448;2023-03-14T01:54:33;11.20;99.90
20498;DHT22;10407;53.238;10.448;2023-03-14T01:57:35;11.10;99.90
20498;DHT22;10407;53.238;10.448;2023-03-14T02:00:11;11.10;99.90
20498;DHT22;10407;53.238;10.448;2023-03-14T02:02:45;11.00;99.90
20498;DHT22;10407;53.238;10.448;2023-03-14T02:05:16;11.00;99.90
20498;DHT22;10407;53.238;10.448;2023-03-14T02:07:55;11.00;99.90
20498;DHT22;10407;53.238;10.448;2023-03-14T02:10:30;10.90;99.90
20498;DHT22;10407;53.238;10.448;2023-03-14T02:12:55;10.80;99.90
20498;DHT22;10407;53.238;10.448;2023-03-14T02:15:24;10.80;99.90
20498;DHT22;10407;53.238;10.448;2023-03-14T02:17:51;10.70;99.90
20498;DHT22;10407;53.238;10.448;2023-03-14T02:23:06;10.90;99.90
20498;DHT22;10407;53.238;10.448;2023-03-14T02:28:14;10.90;99.90
20498;DHT22;10407;53.238;10.448;2023-03-14T02:30:43;10.80;99.90
20498;DHT22;10407;53.238;10.448;2023-03-14T02:33:17;10.80;99.90
20498;DHT22;10407;53.238;10.448;2023-03-14T02:35:59;10.80;99.90
20498;DHT22;10407;53.238;10.448;2023-03-14T02:38:33;10.70;99.90
20498;DHT22;10407;53.238;10.448;2023-03-14T02:41:00;10.60;99.90
20498;DHT22;10407;53.238;10.448;2023-03-14T02:43:28;10.60;99.90
20498;DHT22;10407;53.238;10.448;2023-03-14T02:45:55;10.50;99.90
20498;DHT22;10407;53.238;10.448;2023-03-14T02:48:31;10.50;99.90
20498;DHT22;10407;53.238;10.448;2023-03-14T02:51:00;10.50;99.90
20498;DHT22;10407;53.238;10.448;2023-03-14T02:53:31;10.50;99.90
20498;DHT22;10407;53.238;10.448;2023-03-14T02:55:59;10.50;99.90
20498;DHT22;10407;53.238;10.448;2023-03-14T02:58:27;10.50;99.90
20498;DHT22;10407;53.238;10.448;2023-03-14T03:00:55;10.60;99.90
20498;DHT22;10407;53.238;10.448;2023-03-14T03:03:23;10.60;99.90
20498;DHT22;10407;53.238;10.448;2023-03-14T03:05:52;10.70;99.90
20498;DHT22;10407;53.238;10.448;2023-03-14T03:08:21;10.70;99.90
20498;DHT22;10407;53.238;10.448;2023-03-14T03:10:50;10.70;99.90
20498;DHT22;10407;53.238;10.448;2023-03-14T03:13:18;10.70;99.90
20498;DHT22;10407;53.238;10.448;2023-03-14T03:15:46;10.70;99.90
20498;DHT22;10407;53.238;10.448;2023-03-14T03:18:14;10.70;99.90
20498;DHT22;10407;53.238;10.448;2023-03-14T03:20:41;10.70;99.90
20498;DHT22;10407;53.238;10.448;2023-03-14T03:23:09;10.80;99.90
20498;DHT22;10407;53.238;10.448;2023-03-14T03:25:36;10.80;99.90
20498;DHT22;10407;53.238;10.448;2023-03-14T03:28:04;10.70;99.90
20498;DHT22;10407;53.238;10.448;2023-03-14T03:30:38;10.70;99.90
20498;DHT22;10407;53.238;10.448;2023-03-14T03:33:05;10.70;99.90
20498;DHT22;10407;53.238;10.448;2023-03-14T03:35:33;10.70;99.90
20498;DHT22;10407;53.238;10.448;2023-03-14T03:38:00;10.70;99.90
20498;DHT22;10407;53.238;10.448;2023-03-14T03:40:28;10.70;99.90
20498;DHT22;10407;53.238;10.448;2023-03-14T03:42:55;10.70;99.90
20498;DHT22;10407;53.238;10.448;2023-03-14T03:45:23;10.80;99.90
20498;DHT22;10407;53.238;10.448;2023-03-14T03:47:50;10.80;99.90
20498;DHT22;10407;53.238;10.448;2023-03-14T03:50:18;10.80;99.90
20498;DHT22;10407;53.238;10.448;2023-03-14T03:52:45;10.70;99.90
20498;DHT22;10407;53.238;10.448;2023-03-14T03:55:13;10.80;99.90
20498;DHT22;10407;53.238;10.448;2023-03-14T03:57:40;10.80;99.90
20498;DHT22;10407;53.238;10.448;2023-03-14T04:00:09;10.80;99.90
20498;DHT22;10407;53.238;10.448;2023-03-14T04:02:38;10.80;99.90
20498;DHT22;10407;53.238;10.448;2023-03-14T04:05:06;10.80;99.90
20498;DHT22;10407;53.238;10.448;2023-03-14T04:07:33;10.80;99.90
20498;DHT22;10407;53.238;10.448;2023-03-14T04:10:01;10.80;99.90
20498;DHT22;10407;53.238;10.448;2023-03-14T04:12:29;10.70;99.90
20498;DHT22;10407;53.238;10.448;2023-03-14T04:14:56;10.70;99.90
20498;DHT22;10407;53.238;10.448;2023-03-14T04:17:24;10.70;99.90
20498;DHT22;10407;53.238;10.448;2023-03-14T04:19:51;10.70;99.90
20498;DHT22;10407;53.238;10.448;2023-03-14T04:22:24;10.60;99.90
20498;DHT22;10407;53.238;10.448;2023-03-14T04:24:51;10.60;99.90
20498;DHT22;10407;53.238;10.448;2023-03-14T04:27:19;10.60;99.90
20498;DHT22;10407;53.238;10.448;2023-03-14T04:29:47;10.70;99.90
20498;DHT22;10407;53.238;10.448;2023-03-14T04:32:14;10.60;99.90
20498;DHT22;10407;53.238;10.448;2023-03-14T04:34:42;10.60;99.90
20498;DHT22;10407;53.238;10.448;2023-03-14T04:37:09;10.60;99.90
20498;DHT22;10407;53.238;10.448;2023-03-14T04:39:37;10.70;99.90
20498;DHT22;10407;53.238;10.448;2023-03-14T04:42:05;10.70;99.90
20498;DHT22;10407;53.238;10.448;2023-03-14T04:44:33;10.70;99.90
20498;DHT22;10407;53.238;10.448;2023-03-14T04:47:00;10.70;99.90
20498;DHT22;10407;53.238;10.448;2023-03-14T04:49:28;10.80;99.90
20498;DHT22;10407;53.238;10.448;2023-03-14T04:51:56;10.90;99.90
20498;DHT22;10407;53.238;10.448;2023-03-14T04:54:23;10.90;99.90
20498;DHT22;10407;53.238;10.448;2023-03-14T04:56:51;10.90;99.90
20498;DHT22;10407;53.238;10.448;2023-03-14T04:59:18;10.90;99.90
20498;DHT22;10407;53.238;10.448;2023-03-14T05:01:45;10.90;99.90
20498;DHT22;10407;53.238;10.448;2023-03-14T05:04:15;10.90;99.90
20498;DHT22;10407;53.238;10.448;2023-03-14T05:06:42;10.90;99.90
20498;DHT22;10407;53.238;10.448;2023-03-14T05:09:10;10.90;99.90
20498;DHT22;10407;53.238;10.448;2023-03-14T05:11:38;10.80;99.90
20498;DHT22;10407;53.238;10.448;2023-03-14T05:14:05;10.80;99.90
20498;DHT22;10407;53.238;10.448;2023-03-14T05:16:33;10.90;99.90
20498;DHT22;10407;53.238;10.448;2023-03-14T05:19:01;10.90;99.90
20498;DHT22;10407;53.238;10.448;2023-03-14T05:21:28;10.80;99.90
20498;DHT22;10407;53.238;10.448;2023-03-14T05:23:56;10.90;99.90
20498;DHT22;10407;53.238;10.448;2023-03-14T05:26:23;10.90;99.90
20498;DHT22;10407;53.238;10.448;2023-03-14T05:28:51;10.80;99.90
20498;DHT22;10407;53.238;10.448;2023-03-14T05:31:18;10.80;99.90
20498;DHT22;10407;53.238;10.448;2023-03-14T05:33:46;10.80;99.90
20498;DHT22;10407;53.238;10.448;2023-03-14T05:36:14;10.70;99.90
20498;DHT22;10407;53.238;10.448;2023-03-14T05:38:41;10.70;99.90
20498;DHT22;10407;53.238;10.448;2023-03-14T05:41:09;10.70;99.90
20498;DHT22;10407;53.238;10.448;2023-03-14T05:43:36;10.60;99.90
20498;DHT22;10407;53.238;10.448;2023-03-14T05:46:04;10.70;99.90
20498;DHT22;10407;53.238;10.448;2023-03-14T05:48:31;10.60;99.90
20498;DHT22;10407;53.238;10.448;2023-03-14T05:50:59;10.60;99.90
20498;DHT22;10407;53.238;10.448;2023-03-14T05:53:27;10.50;99.90
20498;DHT22;10407;53.238;10.448;2023-03-14T05:55:56;10.40;99.90
20498;DHT22;10407;53.238;10.448;2023-03-14T05:58:23;10.30;99.90
20498;DHT22;10407;53.238;10.448;2023-03-14T06:00:51;10.30;99.90
20498;DHT22;10407;53.238;10.448;2023-03-14T06:03:19;10.40;99.90
20498;DHT22;10407;53.238;10.448;2023-03-14T06:05:49;10.30;99.90
20498;DHT22;10407;53.238;10.448;2023-03-14T06:08:15;10.20;99.90
20498;DHT22;10407;53.238;10.448;2023-03-14T06:10:43;10.30;99.90
20498;DHT22;10407;53.238;10.448;2023-03-14T06:13:10;10.30;99.90
20498;DHT22;10407;53.238;10.448;2023-03-14T06:15:38;10.40;99.90
20498;DHT22;10407;53.238;10.448;2023-03-14T06:18:06;10.50;99.90
20498;DHT22;10407;53.238;10.448;2023-03-14T06:20:35;10.60;99.90
20498;DHT22;10407;53.238;10.448;2023-03-14T06:23:02;10.50;99.90
20498;DHT22;10407;53.238;10.448;2023-03-14T06:25:30;10.50;99.90
20498;DHT22;10407;53.238;10.448;2023-03-14T06:27:57;10.50;99.90
20498;DHT22;10407;53.238;10.448;2023-03-14T06:30:25;10.60;99.90
20498;DHT22;10407;53.238;10.448;2023-03-14T06:32:53;10.60;99.90
20498;DHT22;10407;53.238;10.448;2023-03-14T06:35:22;10.60;99.90
20498;DHT22;10407;53.238;10.448;2023-03-14T06:37:50;10.50;99.90
20498;DHT22;10407;53.238;10.448;2023-03-14T06:40:18;10.50;99.90
20498;DHT22;10407;53.238;10.448;2023-03-14T06:42:46;10.40;99.90
20498;DHT22;10407;53.238;10.448;2023-03-14T06:45:14;10.30;99.90
20498;DHT22;10407;53.238;10.448;2023-03-14T06:47:42;10.30;99.90
20498;DHT22;10407;53.238;10.448;2023-03-14T06:50:10;10.30;99.90
20498;DHT22;10407;53.238;10.448;2023-03-14T06:52:38;10.30;99.90
20498;DHT22;10407;53.238;10.448;2023-03-14T06:55:07;10.30;99.90
20498;DHT22;10407;53.238;10.448;2023-03-14T06:57:35;10.30;99.90
20498;DHT22;10407;53.238;10.448;2023-03-14T07:00:04;10.30;99.90
20498;DHT22;10407;53.238;10.448;2023-03-14T07:02:33;10.40;99.90
20498;DHT22;10407;53.238;10.448;2023-03-14T07:05:00;10.40;99.90
20498;DHT22;10407;53.238;10.448;2023-03-14T07:07:28;10.50;99.90
20498;DHT22;10407;53.238;10.448;2023-03-14T07:09:55;10.40;99.90
20498;DHT22;10407;53.238;10.448;2023-03-14T07:12:23;10.30;99.90
20498;DHT22;10407;53.238;10.448;2023-03-14T07:14:51;10.30;99.90
20498;DHT22;10407;53.238;10.448;2023-03-14T07:17:18;10.30;99.90
20498;DHT22;10407;53.238;10.448;2023-03-14T07:19:46;10.20;99.90
20498;DHT22;10407;53.238;10.448;2023-03-14T07:22:13;10.20;99.90
20498;DHT22;10407;53.238;10.448;2023-03-14T07:24:41;10.00;99.90
20498;DHT22;10407;53.238;10.448;2023-03-14T07:27:08;9.90;99.90
20498;DHT22;10407;53.238;10.448;2023-03-14T07:29:36;10.00;99.90
20498;DHT22;10407;53.238;10.448;2023-03-14T07:32:03;10.30;99.90
20498;DHT22;10407;53.238;10.448;2023-03-14T07:34:31;10.30;99.90
20498;DHT22;10407;53.238;10.448;2023-03-14T07:36:58;10.10;99.90
20498;DHT22;10407;53.238;10.448;2023-03-14T07:39:26;10.10;99.90
20498;DHT22;10407;53.238;10.448;2023-03-14T07:41:53;10.10;99.90
20498;DHT22;10407;53.238;10.448;2023-03-14T07:44:21;10.10;99.90
20498;DHT22;10407;53.238;10.448;2023-03-14T07:46:48;10.20;99.90
20498;DHT22;10407;53.238;10.448;2023-03-14T07:49:16;10.20;99.90
20498;DHT22;10407;53.238;10.448;2023-03-14T07:51:43;10.30;99.90
20498;DHT22;10407;53.238;10.448;2023-03-14T07:54:11;10.40;99.90
20498;DHT22;10407;53.238;10.448;2023-03-14T07:56:38;10.40;99.90
20498;DHT22;10407;53.238;10.448;2023-03-14T07:59:06;10.50;99.90
20498;DHT22;10407;53.238;10.448;2023-03-14T08:01:33;10.80;99.90
20498;DHT22;10407;53.238;10.448;2023-03-14T08:04:01;10.90;99.90
20498;DHT22;10407;53.238;10.448;2023-03-14T08:06:29;11.20;99.90
20498;DHT22;10407;53.238;10.448;2023-03-14T08:08:56;11.20;99.90
20498;DHT22;10407;53.238;10.448;2023-03-14T08:11:24;11.10;99.90
20498;DHT22;10407;53.238;10.448;2023-03-14T08:13:51;11.20;99.90
20498;DHT22;10407;53.238;10.448;2023-03-14T08:16:19;11.70;99.90
20498;DHT22;10407;53.238;10.448;2023-03-14T08:18:47;11.70;99.90
20498;DHT22;10407;53.238;10.448;2023-03-14T08:21:15;11.70;99.90
20498;DHT22;10407;53.238;10.448;2023-03-14T08:23:42;11.80;99.90
20498;DHT22;10407;53.238;10.448;2023-03-14T08:26:10;12.00;99.90
20498;DHT22;10407;53.238;10.448;2023-03-14T08:28:37;12.00;99.90
20498;DHT22;10407;53.238;10.448;2023-03-14T08:31:06;11.80;99.90
20498;DHT22;10407;53.238;10.448;2023-03-14T08:33:34;12.30;99.90
20498;DHT22;10407;53.238;10.448;2023-03-14T08:36:01;12.50;99.90
20498;DHT22;10407;53.238;10.448;2023-03-14T08:38:29;12.50;99.90
20498;DHT22;10407;53.238;10.448;2023-03-14T08:40:58;12.30;99.90
20498;DHT22;10407;53.238;10.448;2023-03-14T08:43:27;12.10;99.90
20498;DHT22;10407;53.238;10.448;2023-03-14T08:45:59;12.40;99.90
20498;DHT22;10407;53.238;10.448;2023-03-14T08:48:28;12.30;99.90
20498;DHT22;10407;53.238;10.448;2023-03-14T08:51:18;12.50;99.90
20498;DHT22;10407;53.238;10.448;2023-03-14T08:53:26;13.00;99.90
20498;DHT22;10407;53.238;10.448;2023-03-14T08:55:54;13.40;99.90
20498;DHT22;10407;53.238;10.448;2023-03-14T08:58:22;13.60;99.90
20498;DHT22;10407;53.238;10.448;2023-03-14T09:00:50;13.00;99.90
20498;DHT22;10407;53.238;10.448;2023-03-14T09:03:18;13.60;99.90
20498;DHT22;10407;53.238;10.448;2023-03-14T09:05:46;13.80;99.90
20498;DHT22;10407;53.238;10.448;2023-03-14T09:08:14;14.00;99.90
20498;DHT22;10407;53.238;10.448;2023-03-14T09:10:41;14.20;99.90
20498;DHT22;10407;53.238;10.448;2023-03-14T09:13:09;14.20;99.90
20498;DHT22;10407;53.238;10.448;2023-03-14T09:15:36;14.20;99.90
20498;DHT22;10407;53.238;10.448;2023-03-14T09:18:04;14.00;99.90
20498;DHT22;10407;53.238;10.448;2023-03-14T09:20:31;13.50;99.90
20498;DHT22;10407;53.238;10.448;2023-03-14T09:22:59;13.70;99.90
20498;DHT22;10407;53.238;10.448;2023-03-14T09:25:26;13.10;99.90
20498;DHT22;10407;53.238;10.448;2023-03-14T09:27:54;13.10;99.90
20498;DHT22;10407;53.238;10.448;2023-03-14T09:30:21;12.80;99.90
20498;DHT22;10407;53.238;10.448;2023-03-14T09:32:49;12.80;99.90
20498;DHT22;10407;53.238;10.448;2023-03-14T09:35:16;12.80;99.90
20498;DHT22;10407;53.238;10.448;2023-03-14T09:37:44;12.70;99.90
20498;DHT22;10407;53.238;10.448;2023-03-14T09:40:14;12.60;99.90
20498;DHT22;10407;53.238;10.448;2023-03-14T09:42:42;12.50;99.90
20498;DHT22;10407;53.238;10.448;2023-03-14T09:45:25;12.80;99.90
20498;DHT22;10407;53.238;10.448;2023-03-14T09:47:53;12.90;99.90
20498;DHT22;10407;53.238;10.448;2023-03-14T09:50:23;12.80;99.90
20498;DHT22;10407;53.238;10.448;2023-03-14T09:52:59;13.00;99.90
20498;DHT22;10407;53.238;10.448;2023-03-14T09:55:22;12.80;99.90
20498;DHT22;10407;53.238;10.448;2023-03-14T09:57:54;12.90;99.90
20498;DHT22;10407;53.238;10.448;2023-03-14T10:00:23;12.70;99.90
20498;DHT22;10407;53.238;10.448;2023-03-14T10:03:09;12.80;99.90
20498;DHT22;10407;53.238;10.448;2023-03-14T10:05:28;12.70;99.90
20498;DHT22;10407;53.238;10.448;2023-03-14T10:07:56;12.70;99.90
20498;DHT22;10407;53.238;10.448;2023-03-14T10:10:26;13.00;99.90
20498;DHT22;10407;53.238;10.448;2023-03-14T10:12:59;13.20;99.90
20498;DHT22;10407;53.238;10.448;2023-03-14T10:15:32;13.40;99.90
20498;DHT22;10407;53.238;10.448;2023-03-14T10:18:02;13.20;99.90
20498;DHT22;10407;53.238;10.448;2023-03-14T10:20:38;13.00;99.90
20498;DHT22;10407;53.238;10.448;2023-03-14T10:25:46;12.80;99.90
20498;DHT22;10407;53.238;10.448;2023-03-14T10:28:28;13.00;99.90
20498;DHT22;10407;53.238;10.448;2023-03-14T10:30:57;12.60;99.90
20498;DHT22;10407;53.238;10.448;2023-03-14T10:33:33;12.50;99.90
20498;DHT22;10407;53.238;10.448;2023-03-14T10:36:03;12.40;99.90
20498;DHT22;10407;53.238;10.448;2023-03-14T10:38:34;12.40;99.90
20498;DHT22;10407;53.238;10.448;2023-03-14T10:41:14;12.30;99.90
20498;DHT22;10407;53.238;10.448;2023-03-14T10:43:35;12.20;99.90
20498;DHT22;10407;53.238;10.448;2023-03-14T10:46:15;12.10;99.90
20498;DHT22;10407;53.238;10.448;2023-03-14T10:48:44;11.80;99.90
20498;DHT22;10407;53.238;10.448;2023-03-14T10:53:49;12.00;99.90
20498;DHT22;10407;53.238;10.448;2023-03-14T10:56:19;11.80;99.90
20498;DHT22;10407;53.238;10.448;2023-03-14T10:58:50;11.80;99.90
20498;DHT22;10407;53.238;10.448;2023-03-14T11:07:18;10.90;99.90
20498;DHT22;10407;53.238;10.448;2023-03-14T11:15:30;10.70;99.90
20498;DHT22;10407;53.238;10.448;2023-03-14T11:18:10;10.70;99.90
20498;DHT22;10407;53.238;10.448;2023-03-14T11:20:45;10.60;99.90
20498;DHT22;10407;53.238;10.448;2023-03-14T11:23:24;10.50;99.90
20498;DHT22;10407;53.238;10.448;2023-03-14T11:26:04;10.40;99.90
20498;DHT22;10407;53.238;10.448;2023-03-14T11:28:38;10.30;99.90
20498;DHT22;10407;53.238;10.448;2023-03-14T11:31:27;10.30;99.90
20498;DHT22;10407;53.238;10.448;2023-03-14T11:37:00;10.00;99.90
20498;DHT22;10407;53.238;10.448;2023-03-14T11:39:43;9.90;99.90
20498;DHT22;10407;53.238;10.448;2023-03-14T11:42:16;9.80;99.90
20498;DHT22;10407;53.238;10.448;2023-03-14T11:44:50;9.90;99.90
20498;DHT22;10407;53.238;10.448;2023-03-14T11:47:34;9.90;99.90
20498;DHT22;10407;53.238;10.448;2023-03-14T11:50:08;9.50;99.90
20498;DHT22;10407;53.238;10.448;2023-03-14T11:52:50;9.50;99.90
20498;DHT22;10407;53.238;10.448;2023-03-14T11:55:42;9.30;99.90
20498;DHT22;10407;53.238;10.448;2023-03-14T11:58:08;9.20;99.90
20498;DHT22;10407;53.238;10.448;2023-03-14T12:00:32;8.60;99.90
20498;DHT22;10407;53.238;10.448;2023-03-14T12:03:13;8.60;99.90
20498;DHT22;10407;53.238;10.448;2023-03-14T12:05:52;8.20;99.90
20498;DHT22;10407;53.238;10.448;2023-03-14T12:08:30;8.40;99.90
20498;DHT22;10407;53.238;10.448;2023-03-14T12:10:59;8.50;99.90
20498;DHT22;10407;53.238;10.448;2023-03-14T12:13:36;8.30;99.90
20498;DHT22;10407;53.238;10.448;2023-03-14T12:16:19;8.30;99.90
20498;DHT22;10407;53.238;10.448;2023-03-14T12:18:38;8.80;99.90
20498;DHT22;10407;53.238;10.448;2023-03-14T12:21:10;8.80;99.90
20498;DHT22;10407;53.238;10.448;2023-03-14T12:23:49;8.10;99.90
20498;DHT22;10407;53.238;10.448;2023-03-14T12:26:20;8.10;99.90
20498;DHT22;10407;53.238;10.448;2023-03-14T12:29:09;8.10;99.90
20498;DHT22;10407;53.238;10.448;2023-03-14T12:45:21;8.00;99.90
20498;DHT22;10407;53.238;10.448;2023-03-14T12:48:07;7.80;99.90
20498;DHT22;10407;53.238;10.448;2023-03-14T12:50:43;7.90;99.90
20498;DHT22;10407;53.238;10.448;2023-03-14T12:53:37;7.70;99.90
20498;DHT22;10407;53.238;10.448;2023-03-14T13:01:33;7.40;99.90
20498;DHT22;10407;53.238;10.448;2023-03-14T13:04:09;7.50;99.90
20498;DHT22;10407;53.238;10.448;2023-03-14T13:06:49;7.50;99.90
20498;DHT22;10407;53.238;10.448;2023-03-14T13:12:03;8.10;99.90
20498;DHT22;10407;53.238;10.448;2023-03-14T13:14:32;8.20;99.90
20498;DHT22;10407;53.238;10.448;2023-03-14T13:17:01;8.40;99.90
20498;DHT22;10407;53.238;10.448;2023-03-14T13:19:31;8.50;99.90
20498;DHT22;10407;53.238;10.448;2023-03-14T13:22:06;8.10;99.90
20498;DHT22;10407;53.238;10.448;2023-03-14T13:24:32;8.30;99.90
20498;DHT22;10407;53.238;10.448;2023-03-14T13:26:58;8.60;99.90
20498;DHT22;10407;53.238;10.448;2023-03-14T13:29:28;8.60;99.90
20498;DHT22;10407;53.238;10.448;2023-03-14T13:32:00;8.70;99.90
20498;DHT22;10407;53.238;10.448;2023-03-14T13:34:33;8.70;99.90
20498;DHT22;10407;53.238;10.448;2023-03-14T13:37:01;8.80;99.90
20498;DHT22;10407;53.238;10.448;2023-03-14T13:39:29;8.90;99.90
20498;DHT22;10407;53.238;10.448;2023-03-14T13:42:00;8.80;99.90
20498;DHT22;10407;53.238;10.448;2023-03-14T13:44:30;9.00;99.90
20498;DHT22;10407;53.238;10.448;2023-03-14T13:47:00;8.90;99.90
20498;DHT22;10407;53.238;10.448;2023-03-14T13:49:29;8.70;99.90
20498;DHT22;10407;53.238;10.448;2023-03-14T13:51:59;8.30;99.90
20498;DHT22;10407;53.238;10.448;2023-03-14T13:54:27;8.40;99.90
20498;DHT22;10407;53.238;10.448;2023-03-14T13:57:05;8.50;99.90
20498;DHT22;10407;53.238;10.448;2023-03-14T13:59:33;8.30;99.90
20498;DHT22;10407;53.238;10.448;2023-03-14T14:02:09;8.30;99.90
20498;DHT22;10407;53.238;10.448;2023-03-14T14:04:33;8.50;99.90
20498;DHT22;10407;53.238;10.448;2023-03-14T14:07:07;8.60;99.90
20498;DHT22;10407;53.238;10.448;2023-03-14T14:09:43;8.70;99.90
20498;DHT22;10407;53.238;10.448;2023-03-14T14:12:17;8.90;99.90
20498;DHT22;10407;53.238;10.448;2023-03-14T14:14:55;8.70;99.90
20498;DHT22;10407;53.238;10.448;2023-03-14T14:17:35;8.90;99.90
20498;DHT22;10407;53.238;10.448;2023-03-14T14:20:01;8.90;99.90
20498;DHT22;10407;53.238;10.448;2023-03-14T14:22:31;8.90;99.90
20498;DHT22;10407;53.238;10.448;2023-03-14T14:25:00;8.80;99.90
20498;DHT22;10407;53.238;10.448;2023-03-14T14:27:35;8.90;99.50
20498;DHT22;10407;53.238;10.448;2023-03-14T14:30:06;8.90;97.40
20498;DHT22;10407;53.238;10.448;2023-03-14T14:32:38;8.80;98.50
20498;DHT22;10407;53.238;10.448;2023-03-14T14:35:07;8.80;99.90
20498;DHT22;10407;53.238;10.448;2023-03-14T14:37:43;8.70;98.80
20498;DHT22;10407;53.238;10.448;2023-03-14T14:40:17;8.50;95.80
20498;DHT22;10407;53.238;10.448;2023-03-14T14:42:45;8.50;99.70
20498;DHT22;10407;53.238;10.448;2023-03-14T14:45:19;8.50;99.90
20498;DHT22;10407;53.238;10.448;2023-03-14T14:47:55;8.60;99.90
20498;DHT22;10407;53.238;10.448;2023-03-14T14:50:28;8.70;99.90
20498;DHT22;10407;53.238;10.448;2023-03-14T14:53:19;8.40;99.90
20498;DHT22;10407;53.238;10.448;2023-03-14T14:55:42;8.30;99.90
20498;DHT22;10407;53.238;10.448;2023-03-14T14:58:12;8.00;99.90
20498;DHT22;10407;53.238;10.448;2023-03-14T15:00:41;8.20;99.90
20498;DHT22;10407;53.238;10.448;2023-03-14T15:03:12;8.30;99.90
20498;DHT22;10407;53.238;10.448;2023-03-14T15:05:41;8.30;95.90
20498;DHT22;10407;53.238;10.448;2023-03-14T15:08:10;8.20;98.10
20498;DHT22;10407;53.238;10.448;2023-03-14T15:10:37;8.30;96.80
20498;DHT22;10407;53.238;10.448;2023-03-14T15:13:05;8.40;96.90
20498;DHT22;10407;53.238;10.448;2023-03-14T15:15:33;8.00;92.70
20498;DHT22;10407;53.238;10.448;2023-03-14T15:18:01;7.90;96.30
20498;DHT22;10407;53.238;10.448;2023-03-14T15:20:29;7.70;91.90
20498;DHT22;10407;53.238;10.448;2023-03-14T15:22:56;7.50;93.40
20498;DHT22;10407;53.238;10.448;2023-03-14T15:25:24;7.70;96.50
20498;DHT22;10407;53.238;10.448;2023-03-14T15:27:51;7.70;95.30
20498;DHT22;10407;53.238;10.448;2023-03-14T15:30:19;8.00;97.10
20498;DHT22;10407;53.238;10.448;2023-03-14T15:32:46;8.20;95.60
20498;DHT22;10407;53.238;10.448;2023-03-14T15:35:14;7.80;96.10
20498;DHT22;10407;53.238;10.448;2023-03-14T15:37:42;7.80;94.10
20498;DHT22;10407;53.238;10.448;2023-03-14T15:40:12;7.90;94.00
20498;DHT22;10407;53.238;10.448;2023-03-14T15:42:41;7.90;92.90
20498;DHT22;10407;53.238;10.448;2023-03-14T15:45:09;7.80;96.50
20498;DHT22;10407;53.238;10.448;2023-03-14T15:47:36;7.90;95.80
20498;DHT22;10407;53.238;10.448;2023-03-14T15:50:04;8.00;96.50
20498;DHT22;10407;53.238;10.448;2023-03-14T15:52:34;8.10;98.00
20498;DHT22;10407;53.238;10.448;2023-03-14T15:55:01;8.00;98.00
20498;DHT22;10407;53.238;10.448;2023-03-14T15:57:29;8.10;99.30
20498;DHT22;10407;53.238;10.448;2023-03-14T15:59:56;8.20;99.30
20498;DHT22;10407;53.238;10.448;2023-03-14T16:02:24;8.20;99.90
20498;DHT22;10407;53.238;10.448;2023-03-14T16:04:51;8.00;98.80
20498;DHT22;10407;53.238;10.448;2023-03-14T16:07:19;8.00;97.20
20498;DHT22;10407;53.238;10.448;2023-03-14T16:09:47;7.80;97.10
20498;DHT22;10407;53.238;10.448;2023-03-14T16:12:14;7.70;96.00
20498;DHT22;10407;53.238;10.448;2023-03-14T16:14:42;8.00;93.90
20498;DHT22;10407;53.238;10.448;2023-03-14T16:17:09;8.00;94.10
20498;DHT22;10407;53.238;10.448;2023-03-14T16:19:37;8.00;94.30
20498;DHT22;10407;53.238;10.448;2023-03-14T16:22:04;8.00;94.00
20498;DHT22;10407;53.238;10.448;2023-03-14T16:24:32;8.10;94.30